Stations météo

réclame
Mon MeteoGroup
Halmstad, Suède (2604): Température de l'air & dewpoint: 10.06.2019 01:00:00 - 16.06.2019 01:00:00 (CEST)Halmstad, Suède (2604): Vitesse du vent: 10.06.2019 01:00:00 - 16.06.2019 01:00:00 (CEST)Halmstad, Suède (2604): Direction du vent: 10.06.2019 01:00:00 - 16.06.2019 01:00:00 (CEST)Halmstad, Suède (2604): visibility: 10.06.2019 01:00:00 - 16.06.2019 01:00:00 (CEST)
Date & Time tt [°C] td [°C] ff [km/h] ff [knt] dd vv [km]
16.06.2019 01:00:00 17,0 11,0 11 6 E 10
16.06.2019 00:00:00 17,0 10,0 9 5 ESE 10
15.06.2019 23:00:00 17,0 10,0 11 6 E 10
15.06.2019 22:00:00 18,0 10,0 18 10 E 10
15.06.2019 21:00:00 18,0 10,0 18 10 E 10
15.06.2019 20:00:00 19,0 10,0 15 8 E 10
15.06.2019 19:00:00 18,0 10,0 18 10 ENE 10
15.06.2019 18:00:00 17,0 11,0 21 11 E 10
15.06.2019 17:00:00 17,0 12,0 29 16 E 10
15.06.2019 16:00:00 19,0 12,0 18 10 SE 10
15.06.2019 15:00:00 22,0 11,0 15 8 SE 10
15.06.2019 14:00:00 23,0 10,0 18 10 E 10
15.06.2019 13:00:00 25,0 12,0 18 10 SE 10
15.06.2019 12:00:00 24,0 13,0 21 11 E 10
15.06.2019 11:00:00 24,0 13,0 21 11 ESE 10
15.06.2019 10:00:00 23,0 14,0 21 11 ESE 10
15.06.2019 09:00:00 22,0 14,0 16 9 ESE 10
15.06.2019 08:00:00 20,0 13,0 15 8 E 10
15.06.2019 07:00:00 18,0 11,0 8 4 E 10
15.06.2019 06:00:00 17,0 10,0 9 5 ENE 10
15.06.2019 05:00:00 16,0 11,0 11 6 E 10
15.06.2019 04:00:00 17,0 11,0 13 7 ESE 10
15.06.2019 03:00:00 17,0 13,0 13 7 E 10
15.06.2019 02:00:00 17,0 14,0 9 5 E 10
15.06.2019 01:00:00 18,0 14,0 9 5 SE 10
15.06.2019 00:00:00 18,0 15,0 5 3 - 10
14.06.2019 23:00:00 18,0 14,0 5 3 SSW 10
14.06.2019 22:00:00 18,0 14,0 8 4 WNW 10
14.06.2019 21:00:00 20,0 15,0 8 4 W 10
14.06.2019 20:00:00 23,0 12,0 2 1 - 10
14.06.2019 19:00:00 23,0 10,0 4 2 SSE 10
14.06.2019 18:00:00 23,0 11,0 11 6 S 10
14.06.2019 17:00:00 24,0 11,0 11 6 SSW 10
14.06.2019 16:00:00 24,0 12,0 11 6 S 10
14.06.2019 15:00:00 23,0 11,0 13 7 S 10
14.06.2019 14:00:00 22,0 13,0 11 6 S 10
14.06.2019 13:00:00 21,0 13,0 13 7 S 10
14.06.2019 12:00:00 21,0 13,0 11 6 S 10
14.06.2019 11:00:00 19,0 13,0 15 8 SSW 10
14.06.2019 10:00:00 18,0 13,0 18 10 SSE 10
14.06.2019 09:00:00 18,0 13,0 11 6 SSE 10
14.06.2019 08:00:00 16,0 13,0 9 5 SE 10
14.06.2019 07:00:00 15,0 13,0 8 4 ESE 10
14.06.2019 06:00:00 15,0 13,0 11 6 SSE 10
14.06.2019 05:00:00 14,0 13,0 13 7 SSW 10
14.06.2019 04:00:00 14,0 13,0 15 8 E 10
14.06.2019 03:00:00 15,0 13,0 11 6 S 10
14.06.2019 02:00:00 14,0 12,0 15 8 SW 10
14.06.2019 01:00:00 16,0 12,0 4 2 - 10
14.06.2019 00:00:00 15,0 12,0 8 4 ENE 10
13.06.2019 23:00:00 17,0 13,0 5 3 SE 10
13.06.2019 22:00:00 19,0 11,0 5 3 S 10
13.06.2019 21:00:00 20,0 11,0 9 5 S 10
13.06.2019 20:00:00 21,0 11,0 11 6 S 10
13.06.2019 19:00:00 21,0 10,0 9 5 S 10
13.06.2019 18:00:00 22,0 11,0 8 4 S 10
13.06.2019 17:00:00 21,0 9,0 8 4 SSE 10
13.06.2019 16:00:00 20,0 9,0 9 5 WSW 10
13.06.2019 15:00:00 19,0 11,0 11 6 SW 10
13.06.2019 14:00:00 19,0 12,0 16 9 WSW 10
13.06.2019 13:00:00 18,0 13,0 18 10 WSW 10
13.06.2019 12:00:00 18,0 13,0 24 13 SW 10
13.06.2019 11:00:00 17,0 14,0 21 11 WSW 10
13.06.2019 10:00:00 16,0 13,0 21 11 W 10
13.06.2019 09:00:00 17,0 15,0 22 12 WSW 10
13.06.2019 08:00:00 - - - - - -
13.06.2019 07:00:00 16,0 15,0 13 7 SW 5
13.06.2019 06:00:00 16,0 15,0 16 9 SW 4,4
13.06.2019 05:00:00 16,0 15,0 13 7 S 5
13.06.2019 04:00:00 15,0 15,0 11 6 SE 10
13.06.2019 03:00:00 15,0 14,0 5 3 ESE 10
13.06.2019 02:00:00 15,0 14,0 11 6 NE 9
13.06.2019 01:00:00 15,0 14,0 21 11 ENE 3,9
13.06.2019 00:00:00 15,0 14,0 18 10 SE 3,7
12.06.2019 23:00:00 15,0 13,0 18 10 E 10
12.06.2019 22:00:00 16,0 14,0 16 9 ENE 10
12.06.2019 21:00:00 16,0 14,0 21 11 ENE 10
12.06.2019 20:00:00 17,0 14,0 21 11 E 10
12.06.2019 19:00:00 18,0 14,0 24 13 E 10
12.06.2019 18:00:00 19,0 15,0 24 13 E 10
12.06.2019 17:00:00 19,0 15,0 22 12 E 10
12.06.2019 16:00:00 20,0 15,0 18 10 E 10
12.06.2019 15:00:00 20,0 15,0 24 13 E 10
12.06.2019 14:00:00 21,0 16,0 26 14 E 10
12.06.2019 13:00:00 21,0 17,0 16 9 E 10
12.06.2019 12:00:00 18,0 15,0 16 9 E 10
12.06.2019 11:00:00 16,0 14,0 18 10 E 10
12.06.2019 10:00:00 16,0 14,0 28 15 E 10
12.06.2019 09:00:00 16,0 14,0 31 17 E 10
12.06.2019 08:00:00 15,0 14,0 28 15 ENE 10
12.06.2019 07:00:00 14,0 13,0 11 6 ESE 10
12.06.2019 06:00:00 15,0 12,0 26 14 NE 10
12.06.2019 05:00:00 16,0 13,0 21 11 E 10
12.06.2019 04:00:00 15,0 13,0 22 12 ENE 10
12.06.2019 03:00:00 16,0 13,0 18 10 E 10
12.06.2019 02:00:00 16,0 13,0 18 10 ENE 10
12.06.2019 01:00:00 16,0 12,0 15 8 E 10
12.06.2019 00:00:00 16,0 13,0 16 9 E 10
11.06.2019 23:00:00 17,0 13,0 24 13 E 10
11.06.2019 22:00:00 18,0 14,0 24 13 E 10
11.06.2019 21:00:00 20,0 15,0 18 10 ENE 10
11.06.2019 20:00:00 21,0 15,0 13 7 E 10
11.06.2019 19:00:00 21,0 15,0 16 9 E 10
11.06.2019 18:00:00 21,0 16,0 26 14 E 10
11.06.2019 17:00:00 22,0 16,0 28 15 E 10
11.06.2019 16:00:00 22,0 16,0 22 12 E 10
11.06.2019 15:00:00 23,0 16,0 21 11 ESE 10
11.06.2019 14:00:00 24,0 16,0 24 13 E 10
11.06.2019 13:00:00 21,0 15,0 22 12 ENE 10
11.06.2019 12:00:00 19,0 14,0 24 13 ENE 10
11.06.2019 11:00:00 18,0 14,0 26 14 ENE 10
11.06.2019 10:00:00 17,0 13,0 21 11 ENE 10
11.06.2019 09:00:00 15,0 12,0 18 10 ENE 10
11.06.2019 08:00:00 15,0 13,0 26 14 ENE 10
11.06.2019 07:00:00 14,0 12,0 24 13 ENE 10
11.06.2019 06:00:00 16,0 11,0 24 13 ENE 7
11.06.2019 05:00:00 16,0 10,0 21 11 ENE 10
11.06.2019 04:00:00 17,0 10,0 21 11 ENE 10
11.06.2019 03:00:00 17,0 10,0 16 9 ENE 10
11.06.2019 02:00:00 17,0 10,0 16 9 NE 10
11.06.2019 01:00:00 16,0 11,0 15 8 NE 10
11.06.2019 00:00:00 16,0 11,0 11 6 NNE 10
10.06.2019 23:00:00 16,0 10,0 9 5 NNE 10
10.06.2019 22:00:00 18,0 10,0 9 5 ENE 10
10.06.2019 21:00:00 19,0 9,0 11 6 ENE 10
10.06.2019 20:00:00 19,0 9,0 9 5 E 10
10.06.2019 19:00:00 20,0 9,0 18 10 ESE 10
10.06.2019 18:00:00 21,0 9,0 16 9 ESE 10
10.06.2019 17:00:00 20,0 11,0 16 9 NNE 10
10.06.2019 16:00:00 20,0 9,0 11 6 NNE 10
10.06.2019 15:00:00 20,0 9,0 16 9 NNE 10
10.06.2019 14:00:00 19,0 9,0 11 6 NNE 10
10.06.2019 13:00:00 18,0 10,0 5 3 NE 10
10.06.2019 12:00:00 17,0 10,0 9 5 ENE 10
10.06.2019 11:00:00 17,0 10,0 8 4 NE 10
10.06.2019 10:00:00 17,0 11,0 5 3 NNE 10
10.06.2019 09:00:00 16,0 11,0 2 1 - 10
10.06.2019 08:00:00 15,0 11,0 5 3 - 10
10.06.2019 07:00:00 13,0 10,0 4 2 - 10
10.06.2019 06:00:00 10,0 9,0 4 2 NE 10
10.06.2019 05:00:00 10,0 8,0 5 3 ENE 10
10.06.2019 04:00:00 11,0 8,0 5 3 NE 10
10.06.2019 03:00:00 12,0 9,0 5 3 - 10
10.06.2019 02:00:00 13,0 10,0 5 3 ENE 10
10.06.2019 01:00:00 13,0 9,0 8 4 SSW 10

tt = Température de l'air
td = dewpoint
ff = Vitesse du vent
dd = Direction du vent
vv = visibility

stations d'obs. à proximité